sensor_id;sensor_type;location;lat;lon;timestamp;temperature;humidity
72380;SHT30;60354;47.798;12.472;2023-02-23T00:01:32;6.00;76.68
72380;SHT30;60354;47.798;12.472;2023-02-23T00:03:58;5.89;77.62
72380;SHT30;60354;47.798;12.472;2023-02-23T00:06:25;5.85;76.78
72380;SHT30;60354;47.798;12.472;2023-02-23T00:08:52;5.76;77.21
72380;SHT30;60354;47.798;12.472;2023-02-23T00:11:19;5.82;77.68
72380;SHT30;60354;47.798;12.472;2023-02-23T00:13:46;5.92;77.06
72380;SHT30;60354;47.798;12.472;2023-02-23T00:16:22;5.99;77.84
72380;SHT30;60354;47.798;12.472;2023-02-23T00:18:56;6.00;77.23
72380;SHT30;60354;47.798;12.472;2023-02-23T00:21:28;6.03;77.52
72380;SHT30;60354;47.798;12.472;2023-02-23T00:23:59;6.06;77.04
72380;SHT30;60354;47.798;12.472;2023-02-23T00:26:27;6.03;76.92
72380;SHT30;60354;47.798;12.472;2023-02-23T00:28:56;5.99;77.07
72380;SHT30;60354;47.798;12.472;2023-02-23T00:31:23;6.02;76.23
72380;SHT30;60354;47.798;12.472;2023-02-23T00:33:58;5.93;76.68
72380;SHT30;60354;47.798;12.472;2023-02-23T00:36:32;5.95;76.73
72380;SHT30;60354;47.798;12.472;2023-02-23T00:39:01;6.03;77.60
72380;SHT30;60354;47.798;12.472;2023-02-23T00:41:27;6.12;77.37
72380;SHT30;60354;47.798;12.472;2023-02-23T00:43:54;6.03;76.13
72380;SHT30;60354;47.798;12.472;2023-02-23T00:46:23;5.98;76.46
72380;SHT30;60354;47.798;12.472;2023-02-23T00:48:50;5.98;76.67
72380;SHT30;60354;47.798;12.472;2023-02-23T00:51:17;6.03;77.23
72380;SHT30;60354;47.798;12.472;2023-02-23T00:53:44;5.99;77.39
72380;SHT30;60354;47.798;12.472;2023-02-23T00:56:12;5.93;77.03
72380;SHT30;60354;47.798;12.472;2023-02-23T00:58:39;6.00;77.39
72380;SHT30;60354;47.798;12.472;2023-02-23T01:01:07;6.02;76.82
72380;SHT30;60354;47.798;12.472;2023-02-23T01:03:33;5.96;76.69
72380;SHT30;60354;47.798;12.472;2023-02-23T01:06:00;5.96;76.90
72380;SHT30;60354;47.798;12.472;2023-02-23T01:08:32;5.99;77.11
72380;SHT30;60354;47.798;12.472;2023-02-23T01:10:59;5.86;76.26
72380;SHT30;60354;47.798;12.472;2023-02-23T01:13:30;5.88;77.36
72380;SHT30;60354;47.798;12.472;2023-02-23T01:15:59;5.86;76.88
72380;SHT30;60354;47.798;12.472;2023-02-23T01:18:26;5.83;77.99
72380;SHT30;60354;47.798;12.472;2023-02-23T01:20:51;5.81;76.55
72380;SHT30;60354;47.798;12.472;2023-02-23T01:23:17;5.90;77.83
72380;SHT30;60354;47.798;12.472;2023-02-23T01:25:46;5.93;76.77
72380;SHT30;60354;47.798;12.472;2023-02-23T01:28:12;5.96;77.31
72380;SHT30;60354;47.798;12.472;2023-02-23T01:30:38;6.00;77.16
72380;SHT30;60354;47.798;12.472;2023-02-23T01:33:06;5.99;76.33
72380;SHT30;60354;47.798;12.472;2023-02-23T01:35:32;5.99;75.51
72380;SHT30;60354;47.798;12.472;2023-02-23T01:37:58;6.03;75.89
72380;SHT30;60354;47.798;12.472;2023-02-23T01:40:25;6.07;76.60
72380;SHT30;60354;47.798;12.472;2023-02-23T01:42:59;6.06;76.28
72380;SHT30;60354;47.798;12.472;2023-02-23T01:45:34;6.07;76.06
72380;SHT30;60354;47.798;12.472;2023-02-23T01:48:18;6.06;75.63
72380;SHT30;60354;47.798;12.472;2023-02-23T01:50:49;5.98;76.30
72380;SHT30;60354;47.798;12.472;2023-02-23T01:53:17;5.99;76.50
72380;SHT30;60354;47.798;12.472;2023-02-23T01:55:49;5.96;77.05
72380;SHT30;60354;47.798;12.472;2023-02-23T01:58:22;5.99;76.33
72380;SHT30;60354;47.798;12.472;2023-02-23T02:00:54;6.00;76.86
72380;SHT30;60354;47.798;12.472;2023-02-23T02:03:43;6.05;77.19
72380;SHT30;60354;47.798;12.472;2023-02-23T02:06:12;5.98;76.24
72380;SHT30;60354;47.798;12.472;2023-02-23T02:08:43;5.83;77.60
72380;SHT30;60354;47.798;12.472;2023-02-23T02:11:13;5.75;77.42
72380;SHT30;60354;47.798;12.472;2023-02-23T02:14:04;5.83;77.47
72380;SHT30;60354;47.798;12.472;2023-02-23T02:22:28;5.85;77.37
72380;SHT30;60354;47.798;12.472;2023-02-23T02:44:57;5.85;78.31
72380;SHT30;60354;47.798;12.472;2023-02-23T02:47:29;5.85;77.61
72380;SHT30;60354;47.798;12.472;2023-02-23T02:50:11;5.86;77.81
72380;SHT30;60354;47.798;12.472;2023-02-23T02:52:42;5.88;77.44
72380;SHT30;60354;47.798;12.472;2023-02-23T02:55:14;5.90;77.27
72380;SHT30;60354;47.798;12.472;2023-02-23T02:57:43;5.93;77.09
72380;SHT30;60354;47.798;12.472;2023-02-23T03:00:19;5.93;76.90
72380;SHT30;60354;47.798;12.472;2023-02-23T03:03:04;5.90;77.18
72380;SHT30;60354;47.798;12.472;2023-02-23T03:05:51;5.81;78.04
72380;SHT30;60354;47.798;12.472;2023-02-23T03:09:46;5.82;78.00
72380;SHT30;60354;47.798;12.472;2023-02-23T03:15:07;5.65;78.52
72380;SHT30;60354;47.798;12.472;2023-02-23T03:20:53;5.61;77.97
72380;SHT30;60354;47.798;12.472;2023-02-23T03:24:01;5.55;77.67
72380;SHT30;60354;47.798;12.472;2023-02-23T03:26:52;5.62;77.55
72380;SHT30;60354;47.798;12.472;2023-02-23T03:35:24;5.50;77.93
72380;SHT30;60354;47.798;12.472;2023-02-23T03:38:19;5.56;77.71
72380;SHT30;60354;47.798;12.472;2023-02-23T03:41:07;5.59;77.72
72380;SHT30;60354;47.798;12.472;2023-02-23T03:43:56;5.58;77.57
72380;SHT30;60354;47.798;12.472;2023-02-23T03:46:43;5.62;77.53
72380;SHT30;60354;47.798;12.472;2023-02-23T03:49:33;5.63;77.01
72380;SHT30;60354;47.798;12.472;2023-02-23T03:52:26;5.52;77.24
72380;SHT30;60354;47.798;12.472;2023-02-23T03:55:25;5.41;78.05
72380;SHT30;60354;47.798;12.472;2023-02-23T03:58:12;5.44;78.38
72380;SHT30;60354;47.798;12.472;2023-02-23T04:00:58;5.16;79.19
72380;SHT30;60354;47.798;12.472;2023-02-23T04:03:44;5.14;79.51
72380;SHT30;60354;47.798;12.472;2023-02-23T04:06:34;5.19;79.55
72380;SHT30;60354;47.798;12.472;2023-02-23T04:09:19;5.21;78.58
72380;SHT30;60354;47.798;12.472;2023-02-23T04:14:59;5.11;79.06
72380;SHT30;60354;47.798;12.472;2023-02-23T04:17:27;5.16;78.89
72380;SHT30;60354;47.798;12.472;2023-02-23T04:19:54;5.13;79.37
72380;SHT30;60354;47.798;12.472;2023-02-23T04:22:21;5.21;78.98
72380;SHT30;60354;47.798;12.472;2023-02-23T04:24:46;5.14;78.67
72380;SHT30;60354;47.798;12.472;2023-02-23T04:27:13;5.20;79.26
72380;SHT30;60354;47.798;12.472;2023-02-23T04:29:38;5.27;78.96
72380;SHT30;60354;47.798;12.472;2023-02-23T04:32:05;5.27;78.61
72380;SHT30;60354;47.798;12.472;2023-02-23T04:34:30;5.20;79.24
72380;SHT30;60354;47.798;12.472;2023-02-23T04:36:56;5.13;79.02
72380;SHT30;60354;47.798;12.472;2023-02-23T04:39:21;5.16;78.96
72380;SHT30;60354;47.798;12.472;2023-02-23T04:41:47;5.16;79.05
72380;SHT30;60354;47.798;12.472;2023-02-23T04:44:18;5.17;79.28
72380;SHT30;60354;47.798;12.472;2023-02-23T04:46:43;5.13;79.53
72380;SHT30;60354;47.798;12.472;2023-02-23T04:49:09;5.17;78.97
72380;SHT30;60354;47.798;12.472;2023-02-23T04:51:34;5.20;79.43
72380;SHT30;60354;47.798;12.472;2023-02-23T04:54:01;5.27;79.84
72380;SHT30;60354;47.798;12.472;2023-02-23T04:56:28;5.27;78.98
72380;SHT30;60354;47.798;12.472;2023-02-23T04:58:53;5.31;79.27
72380;SHT30;60354;47.798;12.472;2023-02-23T05:01:19;5.37;79.42
72380;SHT30;60354;47.798;12.472;2023-02-23T05:03:49;5.37;79.14
72380;SHT30;60354;47.798;12.472;2023-02-23T05:06:16;5.40;79.64
72380;SHT30;60354;47.798;12.472;2023-02-23T05:08:42;5.47;79.74
72380;SHT30;60354;47.798;12.472;2023-02-23T05:11:07;5.50;79.65
72380;SHT30;60354;47.798;12.472;2023-02-23T05:13:33;5.56;79.08
72380;SHT30;60354;47.798;12.472;2023-02-23T05:15:59;5.58;79.29
72380;SHT30;60354;47.798;12.472;2023-02-23T05:18:25;5.51;79.59
72380;SHT30;60354;47.798;12.472;2023-02-23T05:20:51;5.52;79.25
72380;SHT30;60354;47.798;12.472;2023-02-23T05:23:18;5.54;79.25
72380;SHT30;60354;47.798;12.472;2023-02-23T05:25:43;5.55;79.40
72380;SHT30;60354;47.798;12.472;2023-02-23T05:28:09;5.66;79.61
72380;SHT30;60354;47.798;12.472;2023-02-23T05:30:35;5.71;79.34
72380;SHT30;60354;47.798;12.472;2023-02-23T05:33:00;5.71;78.86
72380;SHT30;60354;47.798;12.472;2023-02-23T05:35:26;5.71;79.08
72380;SHT30;60354;47.798;12.472;2023-02-23T05:37:51;5.69;79.01
72380;SHT30;60354;47.798;12.472;2023-02-23T05:40:17;5.72;79.27
72380;SHT30;60354;47.798;12.472;2023-02-23T05:42:43;5.68;79.23
72380;SHT30;60354;47.798;12.472;2023-02-23T05:45:09;5.68;78.96
72380;SHT30;60354;47.798;12.472;2023-02-23T05:47:35;5.69;78.60
72380;SHT30;60354;47.798;12.472;2023-02-23T05:50:08;5.71;78.20
72380;SHT30;60354;47.798;12.472;2023-02-23T05:52:39;5.75;78.26
72380;SHT30;60354;47.798;12.472;2023-02-23T05:55:07;5.76;77.97
72380;SHT30;60354;47.798;12.472;2023-02-23T05:57:34;5.75;78.21
72380;SHT30;60354;47.798;12.472;2023-02-23T05:59:59;5.75;78.60
72380;SHT30;60354;47.798;12.472;2023-02-23T06:02:25;5.75;78.62
72380;SHT30;60354;47.798;12.472;2023-02-23T06:04:50;5.79;78.26
72380;SHT30;60354;47.798;12.472;2023-02-23T06:07:16;5.75;78.21
72380;SHT30;60354;47.798;12.472;2023-02-23T06:09:41;5.81;78.30
72380;SHT30;60354;47.798;12.472;2023-02-23T06:12:07;5.85;77.96
72380;SHT30;60354;47.798;12.472;2023-02-23T06:17:13;5.89;78.15
72380;SHT30;60354;47.798;12.472;2023-02-23T06:19:38;5.92;77.38
72380;SHT30;60354;47.798;12.472;2023-02-23T06:22:04;5.93;77.24
72380;SHT30;60354;47.798;12.472;2023-02-23T06:24:29;5.92;76.87
72380;SHT30;60354;47.798;12.472;2023-02-23T06:26:54;5.90;76.78
72380;SHT30;60354;47.798;12.472;2023-02-23T06:29:20;5.90;76.85
72380;SHT30;60354;47.798;12.472;2023-02-23T06:31:45;5.95;76.87
72380;SHT30;60354;47.798;12.472;2023-02-23T06:34:11;5.99;76.84
72380;SHT30;60354;47.798;12.472;2023-02-23T06:36:36;5.99;76.71
72380;SHT30;60354;47.798;12.472;2023-02-23T06:39:03;6.02;76.67
72380;SHT30;60354;47.798;12.472;2023-02-23T06:41:28;6.05;76.49
72380;SHT30;60354;47.798;12.472;2023-02-23T06:43:55;6.12;76.36
72380;SHT30;60354;47.798;12.472;2023-02-23T06:46:21;6.13;76.35
72380;SHT30;60354;47.798;12.472;2023-02-23T06:48:47;6.22;76.92
72380;SHT30;60354;47.798;12.472;2023-02-23T06:51:12;6.23;76.48
72380;SHT30;60354;47.798;12.472;2023-02-23T06:53:38;6.29;76.31
72380;SHT30;60354;47.798;12.472;2023-02-23T06:56:03;6.30;76.23
72380;SHT30;60354;47.798;12.472;2023-02-23T06:58:29;6.33;76.13
72380;SHT30;60354;47.798;12.472;2023-02-23T07:00:55;6.36;76.15
72380;SHT30;60354;47.798;12.472;2023-02-23T07:03:22;6.38;76.25
72380;SHT30;60354;47.798;12.472;2023-02-23T07:05:48;6.43;76.35
72380;SHT30;60354;47.798;12.472;2023-02-23T07:08:15;6.45;76.31
72380;SHT30;60354;47.798;12.472;2023-02-23T07:10:43;6.47;77.43
72380;SHT30;60354;47.798;12.472;2023-02-23T07:13:08;6.48;76.88
72380;SHT30;60354;47.798;12.472;2023-02-23T07:15:35;6.51;77.26
72380;SHT30;60354;47.798;12.472;2023-02-23T07:18:01;6.53;77.81
72380;SHT30;60354;47.798;12.472;2023-02-23T07:20:26;6.55;78.12
72380;SHT30;60354;47.798;12.472;2023-02-23T07:22:52;6.54;78.48
72380;SHT30;60354;47.798;12.472;2023-02-23T07:25:19;6.55;78.43
72380;SHT30;60354;47.798;12.472;2023-02-23T07:27:45;6.61;78.07
72380;SHT30;60354;47.798;12.472;2023-02-23T07:30:12;6.65;77.65
72380;SHT30;60354;47.798;12.472;2023-02-23T07:32:37;6.70;77.47
72380;SHT30;60354;47.798;12.472;2023-02-23T07:35:04;6.74;77.68
72380;SHT30;60354;47.798;12.472;2023-02-23T07:37:30;6.77;77.49
72380;SHT30;60354;47.798;12.472;2023-02-23T07:39:56;6.80;76.98
72380;SHT30;60354;47.798;12.472;2023-02-23T07:42:22;6.82;76.94
72380;SHT30;60354;47.798;12.472;2023-02-23T07:44:47;6.89;76.03
72380;SHT30;60354;47.798;12.472;2023-02-23T07:47:13;6.89;75.68
72380;SHT30;60354;47.798;12.472;2023-02-23T07:49:38;6.93;75.91
72380;SHT30;60354;47.798;12.472;2023-02-23T07:52:04;6.99;75.91
72380;SHT30;60354;47.798;12.472;2023-02-23T07:54:29;7.12;76.06
72380;SHT30;60354;47.798;12.472;2023-02-23T07:56:55;7.13;76.41
72380;SHT30;60354;47.798;12.472;2023-02-23T07:59:20;7.12;76.78
72380;SHT30;60354;47.798;12.472;2023-02-23T08:01:46;7.09;76.69
72380;SHT30;60354;47.798;12.472;2023-02-23T08:04:12;7.16;76.23
72380;SHT30;60354;47.798;12.472;2023-02-23T08:06:37;7.16;76.18
72380;SHT30;60354;47.798;12.472;2023-02-23T08:09:04;7.20;76.14
72380;SHT30;60354;47.798;12.472;2023-02-23T08:11:29;7.23;76.27
72380;SHT30;60354;47.798;12.472;2023-02-23T08:13:55;7.27;76.07
72380;SHT30;60354;47.798;12.472;2023-02-23T08:16:31;7.30;75.89
72380;SHT30;60354;47.798;12.472;2023-02-23T08:18:57;7.32;75.70
72380;SHT30;60354;47.798;12.472;2023-02-23T08:21:24;7.32;75.63
72380;SHT30;60354;47.798;12.472;2023-02-23T08:23:50;7.34;75.93
72380;SHT30;60354;47.798;12.472;2023-02-23T08:26:15;7.40;75.40
72380;SHT30;60354;47.798;12.472;2023-02-23T08:28:41;7.42;75.35
72380;SHT30;60354;47.798;12.472;2023-02-23T08:31:10;7.47;74.96
72380;SHT30;60354;47.798;12.472;2023-02-23T08:33:36;7.50;76.37
72380;SHT30;60354;47.798;12.472;2023-02-23T08:36:04;7.53;75.74
72380;SHT30;60354;47.798;12.472;2023-02-23T08:38:30;7.54;75.66
72380;SHT30;60354;47.798;12.472;2023-02-23T08:40:59;7.56;75.85
72380;SHT30;60354;47.798;12.472;2023-02-23T08:43:26;7.50;75.69
72380;SHT30;60354;47.798;12.472;2023-02-23T08:45:52;7.50;75.79
72380;SHT30;60354;47.798;12.472;2023-02-23T08:48:17;7.53;74.84
72380;SHT30;60354;47.798;12.472;2023-02-23T08:50:43;7.57;74.64
72380;SHT30;60354;47.798;12.472;2023-02-23T08:53:08;7.59;73.03
72380;SHT30;60354;47.798;12.472;2023-02-23T08:55:36;7.64;73.03
72380;SHT30;60354;47.798;12.472;2023-02-23T08:58:02;7.71;73.43
72380;SHT30;60354;47.798;12.472;2023-02-23T09:00:28;7.78;73.51
72380;SHT30;60354;47.798;12.472;2023-02-23T09:02:53;7.84;73.46
72380;SHT30;60354;47.798;12.472;2023-02-23T09:05:18;7.91;72.60
72380;SHT30;60354;47.798;12.472;2023-02-23T09:07:45;7.98;72.59
72380;SHT30;60354;47.798;12.472;2023-02-23T09:10:17;7.99;72.90
72380;SHT30;60354;47.798;12.472;2023-02-23T09:12:44;8.04;72.81
72380;SHT30;60354;47.798;12.472;2023-02-23T09:15:10;8.05;72.94
72380;SHT30;60354;47.798;12.472;2023-02-23T09:17:36;8.11;72.96
72380;SHT30;60354;47.798;12.472;2023-02-23T09:20:03;8.09;72.36
72380;SHT30;60354;47.798;12.472;2023-02-23T09:22:30;8.16;72.42
72380;SHT30;60354;47.798;12.472;2023-02-23T09:24:59;8.20;72.74
72380;SHT30;60354;47.798;12.472;2023-02-23T09:27:24;8.24;72.38
72380;SHT30;60354;47.798;12.472;2023-02-23T09:29:50;8.32;72.54
72380;SHT30;60354;47.798;12.472;2023-02-23T09:32:15;8.35;72.68
72380;SHT30;60354;47.798;12.472;2023-02-23T09:34:41;8.42;72.50
72380;SHT30;60354;47.798;12.472;2023-02-23T09:37:06;8.50;72.44
72380;SHT30;60354;47.798;12.472;2023-02-23T09:39:32;8.53;72.21
72380;SHT30;60354;47.798;12.472;2023-02-23T09:47:30;8.70;71.63
72380;SHT30;60354;47.798;12.472;2023-02-23T09:49:59;8.77;71.39
72380;SHT30;60354;47.798;12.472;2023-02-23T09:52:43;8.83;71.22
72380;SHT30;60354;47.798;12.472;2023-02-23T09:55:13;8.87;70.89
72380;SHT30;60354;47.798;12.472;2023-02-23T09:57:42;8.91;70.91
72380;SHT30;60354;47.798;12.472;2023-02-23T10:00:16;8.96;70.59
72380;SHT30;60354;47.798;12.472;2023-02-23T10:05:25;9.07;70.51
72380;SHT30;60354;47.798;12.472;2023-02-23T10:08:05;9.11;70.53
72380;SHT30;60354;47.798;12.472;2023-02-23T10:23:45;9.35;68.99
72380;SHT30;60354;47.798;12.472;2023-02-23T10:26:27;9.41;67.96
72380;SHT30;60354;47.798;12.472;2023-02-23T10:28:57;9.39;67.91
72380;SHT30;60354;47.798;12.472;2023-02-23T10:31:32;9.39;67.40
72380;SHT30;60354;47.798;12.472;2023-02-23T10:34:02;9.44;67.61
72380;SHT30;60354;47.798;12.472;2023-02-23T10:36:51;9.49;67.56
72380;SHT30;60354;47.798;12.472;2023-02-23T10:39:15;9.51;67.67
72380;SHT30;60354;47.798;12.472;2023-02-23T10:41:40;9.52;67.63
72380;SHT30;60354;47.798;12.472;2023-02-23T10:44:14;9.56;67.96
72380;SHT30;60354;47.798;12.472;2023-02-23T10:46:42;9.59;68.60
72380;SHT30;60354;47.798;12.472;2023-02-23T10:49:17;9.63;68.16
72380;SHT30;60354;47.798;12.472;2023-02-23T10:51:43;9.68;68.21
72380;SHT30;60354;47.798;12.472;2023-02-23T10:57:00;9.78;68.23
72380;SHT30;60354;47.798;12.472;2023-02-23T10:59:26;9.81;68.40
72380;SHT30;60354;47.798;12.472;2023-02-23T11:01:52;9.81;68.52
72380;SHT30;60354;47.798;12.472;2023-02-23T11:06:43;9.76;68.75
72380;SHT30;60354;47.798;12.472;2023-02-23T11:09:29;9.83;68.93
72380;SHT30;60354;47.798;12.472;2023-02-23T11:14:26;9.90;69.07
72380;SHT30;60354;47.798;12.472;2023-02-23T11:16:56;9.93;69.00
72380;SHT30;60354;47.798;12.472;2023-02-23T11:19:35;9.95;68.88
72380;SHT30;60354;47.798;12.472;2023-02-23T11:22:02;9.96;69.25
72380;SHT30;60354;47.798;12.472;2023-02-23T11:24:33;9.97;69.58
72380;SHT30;60354;47.798;12.472;2023-02-23T11:27:02;9.99;69.46
72380;SHT30;60354;47.798;12.472;2023-02-23T11:29:38;9.96;69.77
72380;SHT30;60354;47.798;12.472;2023-02-23T11:32:12;9.99;69.82
72380;SHT30;60354;47.798;12.472;2023-02-23T11:34:40;10.03;69.92
72380;SHT30;60354;47.798;12.472;2023-02-23T11:37:19;10.05;69.85
72380;SHT30;60354;47.798;12.472;2023-02-23T11:39:58;10.00;69.85
72380;SHT30;60354;47.798;12.472;2023-02-23T11:42:34;10.03;69.77
72380;SHT30;60354;47.798;12.472;2023-02-23T11:45:06;10.02;69.63
72380;SHT30;60354;47.798;12.472;2023-02-23T11:47:33;10.07;70.08
72380;SHT30;60354;47.798;12.472;2023-02-23T11:50:03;10.13;70.08
72380;SHT30;60354;47.798;12.472;2023-02-23T11:52:29;10.17;70.17
72380;SHT30;60354;47.798;12.472;2023-02-23T11:55:04;10.18;70.30
72380;SHT30;60354;47.798;12.472;2023-02-23T11:57:33;10.23;70.53
72380;SHT30;60354;47.798;12.472;2023-02-23T12:00:03;10.24;70.87
72380;SHT30;60354;47.798;12.472;2023-02-23T12:02:50;10.30;70.80
72380;SHT30;60354;47.798;12.472;2023-02-23T12:07:54;10.33;70.85
72380;SHT30;60354;47.798;12.472;2023-02-23T12:11:09;10.34;70.76
72380;SHT30;60354;47.798;12.472;2023-02-23T12:13:35;10.33;70.70
72380;SHT30;60354;47.798;12.472;2023-02-23T12:18:56;10.34;71.34
72380;SHT30;60354;47.798;12.472;2023-02-23T12:21:28;10.32;71.57
72380;SHT30;60354;47.798;12.472;2023-02-23T12:24:15;10.32;72.13
72380;SHT30;60354;47.798;12.472;2023-02-23T12:26:47;10.32;72.26
72380;SHT30;60354;47.798;12.472;2023-02-23T12:29:20;10.30;72.62
72380;SHT30;60354;47.798;12.472;2023-02-23T12:31:57;10.26;72.57
72380;SHT30;60354;47.798;12.472;2023-02-23T12:34:33;10.26;72.98
72380;SHT30;60354;47.798;12.472;2023-02-23T12:37:13;10.27;72.88
72380;SHT30;60354;47.798;12.472;2023-02-23T12:39:46;10.29;73.19
72380;SHT30;60354;47.798;12.472;2023-02-23T12:42:25;10.33;73.35
72380;SHT30;60354;47.798;12.472;2023-02-23T12:44:54;10.29;74.06
72380;SHT30;60354;47.798;12.472;2023-02-23T12:47:42;10.33;74.43
72380;SHT30;60354;47.798;12.472;2023-02-23T12:53:18;10.21;76.07
72380;SHT30;60354;47.798;12.472;2023-02-23T13:01:08;10.05;76.10
72380;SHT30;60354;47.798;12.472;2023-02-23T13:03:56;10.12;76.21
72380;SHT30;60354;47.798;12.472;2023-02-23T13:18:08;10.20;76.00
72380;SHT30;60354;47.798;12.472;2023-02-23T13:20:44;10.29;75.81
72380;SHT30;60354;47.798;12.472;2023-02-23T13:28:58;10.36;76.32
72380;SHT30;60354;47.798;12.472;2023-02-23T13:31:29;10.40;76.24
72380;SHT30;60354;47.798;12.472;2023-02-23T13:33:57;10.47;75.79
72380;SHT30;60354;47.798;12.472;2023-02-23T13:36:25;10.47;75.76
72380;SHT30;60354;47.798;12.472;2023-02-23T13:41:38;10.53;75.43
72380;SHT30;60354;47.798;12.472;2023-02-23T13:44:20;10.53;75.29
72380;SHT30;60354;47.798;12.472;2023-02-23T13:49:45;10.53;75.56
72380;SHT30;60354;47.798;12.472;2023-02-23T13:52:37;10.50;75.47
72380;SHT30;60354;47.798;12.472;2023-02-23T13:57:51;10.54;75.51
72380;SHT30;60354;47.798;12.472;2023-02-23T14:00:21;10.48;75.29
72380;SHT30;60354;47.798;12.472;2023-02-23T14:02:47;10.57;75.06
72380;SHT30;60354;47.798;12.472;2023-02-23T14:05:22;10.57;75.00
72380;SHT30;60354;47.798;12.472;2023-02-23T14:08:00;10.61;75.25
72380;SHT30;60354;47.798;12.472;2023-02-23T14:10:41;10.55;74.88
72380;SHT30;60354;47.798;12.472;2023-02-23T14:13:38;10.64;74.37
72380;SHT30;60354;47.798;12.472;2023-02-23T14:16:17;10.69;74.29
72380;SHT30;60354;47.798;12.472;2023-02-23T14:18:53;10.75;74.38
72380;SHT30;60354;47.798;12.472;2023-02-23T14:21:34;10.75;74.32
72380;SHT30;60354;47.798;12.472;2023-02-23T14:24:16;10.67;74.49
72380;SHT30;60354;47.798;12.472;2023-02-23T14:26:45;10.67;74.24
72380;SHT30;60354;47.798;12.472;2023-02-23T14:30:28;10.61;74.55
72380;SHT30;60354;47.798;12.472;2023-02-23T14:32:30;10.57;74.64
72380;SHT30;60354;47.798;12.472;2023-02-23T14:34:58;10.51;74.89
72380;SHT30;60354;47.798;12.472;2023-02-23T14:39:51;10.53;74.90
72380;SHT30;60354;47.798;12.472;2023-02-23T14:42:23;10.57;75.00
72380;SHT30;60354;47.798;12.472;2023-02-23T14:44:51;10.65;74.69
72380;SHT30;60354;47.798;12.472;2023-02-23T14:47:19;10.69;74.49
72380;SHT30;60354;47.798;12.472;2023-02-23T14:50:07;10.75;74.31
72380;SHT30;60354;47.798;12.472;2023-02-23T14:52:40;10.79;74.16
72380;SHT30;60354;47.798;12.472;2023-02-23T14:55:21;10.85;73.99
72380;SHT30;60354;47.798;12.472;2023-02-23T14:57:48;10.88;73.92
72380;SHT30;60354;47.798;12.472;2023-02-23T15:00:18;10.92;73.85
72380;SHT30;60354;47.798;12.472;2023-02-23T15:03:03;10.94;73.73
72380;SHT30;60354;47.798;12.472;2023-02-23T15:07:57;10.95;73.80
72380;SHT30;60354;47.798;12.472;2023-02-23T15:10:28;10.92;73.76
72380;SHT30;60354;47.798;12.472;2023-02-23T15:12:54;10.94;73.90
72380;SHT30;60354;47.798;12.472;2023-02-23T15:15:24;10.96;73.92
72380;SHT30;60354;47.798;12.472;2023-02-23T15:17:54;10.94;74.00
72380;SHT30;60354;47.798;12.472;2023-02-23T15:20:22;10.86;74.23
72380;SHT30;60354;47.798;12.472;2023-02-23T15:22:57;10.75;74.56
72380;SHT30;60354;47.798;12.472;2023-02-23T15:25:31;10.67;74.77
72380;SHT30;60354;47.798;12.472;2023-02-23T15:27:58;10.61;74.40
72380;SHT30;60354;47.798;12.472;2023-02-23T15:33:11;10.57;75.09
72380;SHT30;60354;47.798;12.472;2023-02-23T15:38:37;10.51;75.40
72380;SHT30;60354;47.798;12.472;2023-02-23T15:41:07;10.54;75.30
72380;SHT30;60354;47.798;12.472;2023-02-23T15:43:34;10.45;75.61
72380;SHT30;60354;47.798;12.472;2023-02-23T15:46:01;10.45;75.50
72380;SHT30;60354;47.798;12.472;2023-02-23T15:48:42;10.45;75.65
72380;SHT30;60354;47.798;12.472;2023-02-23T15:53:53;10.43;75.84
72380;SHT30;60354;47.798;12.472;2023-02-23T15:56:24;10.43;75.84
72380;SHT30;60354;47.798;12.472;2023-02-23T15:58:55;10.44;75.93
72380;SHT30;60354;47.798;12.472;2023-02-23T16:01:24;10.41;76.02
72380;SHT30;60354;47.798;12.472;2023-02-23T16:04:21;10.45;75.87
72380;SHT30;60354;47.798;12.472;2023-02-23T16:12:02;10.43;75.92
72380;SHT30;60354;47.798;12.472;2023-02-23T16:14:34;10.41;76.02
72380;SHT30;60354;47.798;12.472;2023-02-23T16:17:06;10.38;76.22
72380;SHT30;60354;47.798;12.472;2023-02-23T16:19:31;10.37;76.33
72380;SHT30;60354;47.798;12.472;2023-02-23T16:21:57;10.36;76.44
72380;SHT30;60354;47.798;12.472;2023-02-23T16:24:26;10.33;76.50
72380;SHT30;60354;47.798;12.472;2023-02-23T16:26:53;10.29;76.71
72380;SHT30;60354;47.798;12.472;2023-02-23T16:29:38;10.27;75.23
72380;SHT30;60354;47.798;12.472;2023-02-23T16:32:19;10.16;77.56
72380;SHT30;60354;47.798;12.472;2023-02-23T16:37:18;9.81;79.15
72380;SHT30;60354;47.798;12.472;2023-02-23T16:39:44;9.62;79.96
72380;SHT30;60354;47.798;12.472;2023-02-23T16:44:50;9.58;79.46
72380;SHT30;60354;47.798;12.472;2023-02-23T16:49:47;9.68;79.05
72380;SHT30;60354;47.798;12.472;2023-02-23T16:52:18;9.66;78.71
72380;SHT30;60354;47.798;12.472;2023-02-23T16:54:44;9.69;78.62
72380;SHT30;60354;47.798;12.472;2023-02-23T16:57:39;9.68;78.42
72380;SHT30;60354;47.798;12.472;2023-02-23T17:00:06;9.74;78.24
72380;SHT30;60354;47.798;12.472;2023-02-23T17:02:43;9.75;78.01
72380;SHT30;60354;47.798;12.472;2023-02-23T17:05:13;9.78;78.20
72380;SHT30;60354;47.798;12.472;2023-02-23T17:07:40;9.81;77.98
72380;SHT30;60354;47.798;12.472;2023-02-23T17:10:06;9.81;77.71
72380;SHT30;60354;47.798;12.472;2023-02-23T17:12:32;9.83;77.39
72380;SHT30;60354;47.798;12.472;2023-02-23T17:14:58;9.76;76.44
72380;SHT30;60354;47.798;12.472;2023-02-23T17:17:24;9.69;76.81
72380;SHT30;60354;47.798;12.472;2023-02-23T17:19:49;9.61;77.48
72380;SHT30;60354;47.798;12.472;2023-02-23T17:22:15;9.59;77.73
72380;SHT30;60354;47.798;12.472;2023-02-23T17:24:41;9.58;77.69
72380;SHT30;60354;47.798;12.472;2023-02-23T17:27:07;9.61;77.63
72380;SHT30;60354;47.798;12.472;2023-02-23T17:29:32;9.61;77.52
72380;SHT30;60354;47.798;12.472;2023-02-23T17:31:58;9.61;77.41
72380;SHT30;60354;47.798;12.472;2023-02-23T17:34:25;9.61;77.22
72380;SHT30;60354;47.798;12.472;2023-02-23T17:36:51;9.56;77.34
72380;SHT30;60354;47.798;12.472;2023-02-23T17:39:16;9.61;77.25
72380;SHT30;60354;47.798;12.472;2023-02-23T17:41:42;9.59;77.31
72380;SHT30;60354;47.798;12.472;2023-02-23T17:44:08;9.62;77.11
72380;SHT30;60354;47.798;12.472;2023-02-23T17:46:34;9.59;76.95
72380;SHT30;60354;47.798;12.472;2023-02-23T17:49:00;9.56;76.72
72380;SHT30;60354;47.798;12.472;2023-02-23T17:51:26;9.52;76.50
72380;SHT30;60354;47.798;12.472;2023-02-23T17:53:51;9.55;76.43
72380;SHT30;60354;47.798;12.472;2023-02-23T17:56:17;9.45;76.69
72380;SHT30;60354;47.798;12.472;2023-02-23T17:58:44;9.44;76.68
72380;SHT30;60354;47.798;12.472;2023-02-23T18:01:10;9.41;76.93
72380;SHT30;60354;47.798;12.472;2023-02-23T18:03:36;9.32;77.23
72380;SHT30;60354;47.798;12.472;2023-02-23T18:06:07;9.34;77.30
72380;SHT30;60354;47.798;12.472;2023-02-23T18:08:34;9.31;77.26